sensor_id;sensor_type;location;lat;lon;timestamp;P1;durP1;ratioP1;P2;durP2;ratioP2
28545;SDS011;15749;49.606;8.738;2024-02-26T00:07:28;0.77;;;0.70;;
28545;SDS011;15749;49.606;8.738;2024-02-26T00:09:57;0.43;;;0.37;;
28545;SDS011;15749;49.606;8.738;2024-02-26T00:12:26;0.40;;;0.40;;
28545;SDS011;15749;49.606;8.738;2024-02-26T00:14:55;1.10;;;0.70;;
28545;SDS011;15749;49.606;8.738;2024-02-26T00:17:25;1.03;;;0.53;;
28545;SDS011;15749;49.606;8.738;2024-02-26T00:19:54;1.90;;;0.50;;
28545;SDS011;15749;49.606;8.738;2024-02-26T00:22:23;1.23;;;0.80;;
28545;SDS011;15749;49.606;8.738;2024-02-26T00:24:54;0.50;;;0.50;;
28545;SDS011;15749;49.606;8.738;2024-02-26T00:27:23;1.63;;;0.53;;
28545;SDS011;15749;49.606;8.738;2024-02-26T00:29:52;0.80;;;0.70;;
28545;SDS011;15749;49.606;8.738;2024-02-26T00:32:21;0.63;;;0.63;;
28545;SDS011;15749;49.606;8.738;2024-02-26T00:34:50;1.20;;;0.70;;
28545;SDS011;15749;49.606;8.738;2024-02-26T00:37:19;0.70;;;0.63;;
28545;SDS011;15749;49.606;8.738;2024-02-26T00:39:48;0.50;;;0.50;;
28545;SDS011;15749;49.606;8.738;2024-02-26T00:42:19;0.70;;;0.40;;
28545;SDS011;15749;49.606;8.738;2024-02-26T00:44:48;0.50;;;0.50;;
28545;SDS011;15749;49.606;8.738;2024-02-26T00:47:17;0.70;;;0.47;;
28545;SDS011;15749;49.606;8.738;2024-02-26T05:11:05;0.50;;;0.40;;
28545;SDS011;15749;49.606;8.738;2024-02-26T05:13:34;0.40;;;0.40;;
28545;SDS011;15749;49.606;8.738;2024-02-26T05:30:06;0.57;;;0.50;;
28545;SDS011;15749;49.606;8.738;2024-02-26T05:32:36;0.50;;;0.40;;
28545;SDS011;15749;49.606;8.738;2024-02-26T05:35:05;0.60;;;0.40;;
28545;SDS011;15749;49.606;8.738;2024-02-26T05:37:35;0.80;;;0.60;;
28545;SDS011;15749;49.606;8.738;2024-02-26T05:40:05;0.70;;;0.40;;
28545;SDS011;15749;49.606;8.738;2024-02-26T05:42:35;0.43;;;0.30;;
28545;SDS011;15749;49.606;8.738;2024-02-26T05:45:06;0.40;;;0.30;;
28545;SDS011;15749;49.606;8.738;2024-02-26T05:47:36;0.90;;;0.40;;
28545;SDS011;15749;49.606;8.738;2024-02-26T05:50:10;0.50;;;0.40;;
28545;SDS011;15749;49.606;8.738;2024-02-26T05:52:40;0.50;;;0.40;;
28545;SDS011;15749;49.606;8.738;2024-02-26T05:55:09;0.63;;;0.50;;
28545;SDS011;15749;49.606;8.738;2024-02-26T05:57:38;0.60;;;0.50;;
28545;SDS011;15749;49.606;8.738;2024-02-26T06:00:09;0.70;;;0.50;;
28545;SDS011;15749;49.606;8.738;2024-02-26T06:02:41;0.60;;;0.40;;
28545;SDS011;15749;49.606;8.738;2024-02-26T06:05:11;0.87;;;0.43;;
28545;SDS011;15749;49.606;8.738;2024-02-26T06:07:40;0.40;;;0.40;;
28545;SDS011;15749;49.606;8.738;2024-02-26T06:10:09;0.60;;;0.60;;
28545;SDS011;15749;49.606;8.738;2024-02-26T06:12:40;0.60;;;0.37;;
28545;SDS011;15749;49.606;8.738;2024-02-26T06:15:11;0.40;;;0.40;;
28545;SDS011;15749;49.606;8.738;2024-02-26T06:17:40;0.50;;;0.40;;
28545;SDS011;15749;49.606;8.738;2024-02-26T06:20:10;0.50;;;0.40;;
28545;SDS011;15749;49.606;8.738;2024-02-26T06:22:40;0.40;;;0.40;;
28545;SDS011;15749;49.606;8.738;2024-02-26T06:25:10;0.83;;;0.50;;
28545;SDS011;15749;49.606;8.738;2024-02-26T06:27:39;0.47;;;0.30;;
28545;SDS011;15749;49.606;8.738;2024-02-26T06:30:08;0.53;;;0.40;;
28545;SDS011;15749;49.606;8.738;2024-02-26T06:32:40;0.40;;;0.30;;
28545;SDS011;15749;49.606;8.738;2024-02-26T06:35:09;0.60;;;0.40;;
28545;SDS011;15749;49.606;8.738;2024-02-26T06:37:39;0.50;;;0.30;;
28545;SDS011;15749;49.606;8.738;2024-02-26T06:40:08;0.43;;;0.37;;
28545;SDS011;15749;49.606;8.738;2024-02-26T06:42:37;0.30;;;0.30;;
28545;SDS011;15749;49.606;8.738;2024-02-26T06:45:07;0.33;;;0.30;;
28545;SDS011;15749;49.606;8.738;2024-02-26T06:47:37;0.40;;;0.40;;
28545;SDS011;15749;49.606;8.738;2024-02-26T06:50:07;0.37;;;0.37;;
28545;SDS011;15749;49.606;8.738;2024-02-26T06:52:37;0.27;;;0.27;;
28545;SDS011;15749;49.606;8.738;2024-02-26T06:55:06;0.30;;;0.30;;
28545;SDS011;15749;49.606;8.738;2024-02-26T06:57:35;0.70;;;0.50;;
28545;SDS011;15749;49.606;8.738;2024-02-26T07:00:05;1.33;;;1.23;;
28545;SDS011;15749;49.606;8.738;2024-02-26T07:02:35;1.37;;;1.27;;
28545;SDS011;15749;49.606;8.738;2024-02-26T07:05:07;1.17;;;0.97;;
28545;SDS011;15749;49.606;8.738;2024-02-26T07:07:37;1.20;;;1.10;;
28545;SDS011;15749;49.606;8.738;2024-02-26T07:10:06;1.10;;;1.00;;
28545;SDS011;15749;49.606;8.738;2024-02-26T07:12:36;0.80;;;0.80;;
28545;SDS011;15749;49.606;8.738;2024-02-26T07:15:05;0.60;;;0.53;;
28545;SDS011;15749;49.606;8.738;2024-02-26T07:17:35;0.77;;;0.60;;
28545;SDS011;15749;49.606;8.738;2024-02-26T07:20:05;0.50;;;0.50;;
28545;SDS011;15749;49.606;8.738;2024-02-26T07:22:38;0.40;;;0.37;;
28545;SDS011;15749;49.606;8.738;2024-02-26T07:25:07;0.53;;;0.40;;
28545;SDS011;15749;49.606;8.738;2024-02-26T07:27:40;0.50;;;0.40;;
28545;SDS011;15749;49.606;8.738;2024-02-26T07:30:09;0.60;;;0.40;;
28545;SDS011;15749;49.606;8.738;2024-02-26T07:32:39;0.57;;;0.50;;
28545;SDS011;15749;49.606;8.738;2024-02-26T07:35:08;0.50;;;0.50;;
28545;SDS011;15749;49.606;8.738;2024-02-26T07:37:39;0.60;;;0.60;;
28545;SDS011;15749;49.606;8.738;2024-02-26T07:40:08;0.60;;;0.60;;
28545;SDS011;15749;49.606;8.738;2024-02-26T07:42:38;0.80;;;0.80;;
28545;SDS011;15749;49.606;8.738;2024-02-26T07:45:07;0.57;;;0.57;;
28545;SDS011;15749;49.606;8.738;2024-02-26T07:47:37;0.67;;;0.60;;
28545;SDS011;15749;49.606;8.738;2024-02-26T07:50:08;0.60;;;0.60;;
28545;SDS011;15749;49.606;8.738;2024-02-26T07:52:40;0.50;;;0.50;;
28545;SDS011;15749;49.606;8.738;2024-02-26T07:55:09;0.70;;;0.63;;
28545;SDS011;15749;49.606;8.738;2024-02-26T07:57:41;1.07;;;0.80;;
28545;SDS011;15749;49.606;8.738;2024-02-26T08:00:11;1.00;;;0.90;;
28545;SDS011;15749;49.606;8.738;2024-02-26T08:02:44;0.80;;;0.80;;
28545;SDS011;15749;49.606;8.738;2024-02-26T08:05:14;0.70;;;0.70;;
28545;SDS011;15749;49.606;8.738;2024-02-26T08:07:44;1.27;;;0.90;;
28545;SDS011;15749;49.606;8.738;2024-02-26T08:10:14;0.90;;;0.90;;
28545;SDS011;15749;49.606;8.738;2024-02-26T08:12:43;0.80;;;0.80;;
28545;SDS011;15749;49.606;8.738;2024-02-26T08:15:13;0.80;;;0.80;;
28545;SDS011;15749;49.606;8.738;2024-02-26T08:17:42;1.07;;;0.90;;
28545;SDS011;15749;49.606;8.738;2024-02-26T08:20:12;0.90;;;0.80;;
28545;SDS011;15749;49.606;8.738;2024-02-26T08:22:41;0.80;;;0.80;;
28545;SDS011;15749;49.606;8.738;2024-02-26T08:25:11;0.80;;;0.80;;
28545;SDS011;15749;49.606;8.738;2024-02-26T08:27:41;1.20;;;0.77;;
28545;SDS011;15749;49.606;8.738;2024-02-26T08:30:10;0.67;;;0.60;;
28545;SDS011;15749;49.606;8.738;2024-02-26T08:32:40;0.50;;;0.40;;
28545;SDS011;15749;49.606;8.738;2024-02-26T08:35:10;0.73;;;0.60;;
28545;SDS011;15749;49.606;8.738;2024-02-26T08:37:39;0.50;;;0.50;;
28545;SDS011;15749;49.606;8.738;2024-02-26T08:40:08;0.50;;;0.43;;
28545;SDS011;15749;49.606;8.738;2024-02-26T08:42:39;0.43;;;0.43;;
28545;SDS011;15749;49.606;8.738;2024-02-26T08:45:09;0.40;;;0.40;;
28545;SDS011;15749;49.606;8.738;2024-02-26T08:47:38;1.20;;;1.00;;
28545;SDS011;15749;49.606;8.738;2024-02-26T08:50:08;1.80;;;1.50;;
28545;SDS011;15749;49.606;8.738;2024-02-26T08:52:39;1.30;;;1.20;;
28545;SDS011;15749;49.606;8.738;2024-02-26T08:55:08;2.00;;;1.80;;
28545;SDS011;15749;49.606;8.738;2024-02-26T08:57:37;1.53;;;1.40;;
28545;SDS011;15749;49.606;8.738;2024-02-26T09:00:08;1.17;;;0.93;;
28545;SDS011;15749;49.606;8.738;2024-02-26T09:02:38;0.73;;;0.73;;
28545;SDS011;15749;49.606;8.738;2024-02-26T09:05:07;3.10;;;1.80;;
28545;SDS011;15749;49.606;8.738;2024-02-26T09:07:37;1.70;;;1.20;;
28545;SDS011;15749;49.606;8.738;2024-02-26T09:10:06;2.00;;;1.00;;
28545;SDS011;15749;49.606;8.738;2024-02-26T09:12:37;2.90;;;1.50;;
28545;SDS011;15749;49.606;8.738;2024-02-26T09:15:08;1.50;;;1.00;;
28545;SDS011;15749;49.606;8.738;2024-02-26T09:17:38;7.90;;;4.60;;
28545;SDS011;15749;49.606;8.738;2024-02-26T09:20:08;18.27;;;10.90;;
28545;SDS011;15749;49.606;8.738;2024-02-26T09:22:37;14.33;;;9.23;;
28545;SDS011;15749;49.606;8.738;2024-02-26T09:25:07;8.13;;;5.20;;
28545;SDS011;15749;49.606;8.738;2024-02-26T09:27:36;5.23;;;3.77;;
28545;SDS011;15749;49.606;8.738;2024-02-26T09:30:11;14.23;;;9.73;;
28545;SDS011;15749;49.606;8.738;2024-02-26T09:32:45;12.60;;;5.97;;
28545;SDS011;15749;49.606;8.738;2024-02-26T09:35:15;8.50;;;4.07;;
28545;SDS011;15749;49.606;8.738;2024-02-26T09:37:44;4.37;;;2.47;;
28545;SDS011;15749;49.606;8.738;2024-02-26T09:40:13;2.60;;;1.60;;
28545;SDS011;15749;49.606;8.738;2024-02-26T09:42:43;3.30;;;1.63;;
28545;SDS011;15749;49.606;8.738;2024-02-26T09:45:18;1.67;;;1.23;;
28545;SDS011;15749;49.606;8.738;2024-02-26T09:47:49;1.10;;;0.80;;
28545;SDS011;15749;49.606;8.738;2024-02-26T09:50:19;0.70;;;0.60;;
28545;SDS011;15749;49.606;8.738;2024-02-26T09:52:51;0.60;;;0.60;;
28545;SDS011;15749;49.606;8.738;2024-02-26T09:55:21;0.40;;;0.40;;
28545;SDS011;15749;49.606;8.738;2024-02-26T09:57:51;0.40;;;0.40;;
28545;SDS011;15749;49.606;8.738;2024-02-26T10:00:22;0.70;;;0.50;;
28545;SDS011;15749;49.606;8.738;2024-02-26T10:02:53;0.60;;;0.50;;
28545;SDS011;15749;49.606;8.738;2024-02-26T10:05:25;0.63;;;0.30;;
28545;SDS011;15749;49.606;8.738;2024-02-26T10:07:55;0.40;;;0.30;;
28545;SDS011;15749;49.606;8.738;2024-02-26T10:10:25;0.40;;;0.40;;
28545;SDS011;15749;49.606;8.738;2024-02-26T10:12:56;0.30;;;0.30;;
28545;SDS011;15749;49.606;8.738;2024-02-26T10:15:27;0.70;;;0.50;;
28545;SDS011;15749;49.606;8.738;2024-02-26T10:17:56;0.50;;;0.50;;
28545;SDS011;15749;49.606;8.738;2024-02-26T10:20:26;0.57;;;0.47;;
28545;SDS011;15749;49.606;8.738;2024-02-26T10:22:55;0.30;;;0.30;;
28545;SDS011;15749;49.606;8.738;2024-02-26T10:33:54;0.57;;;0.40;;
28545;SDS011;15749;49.606;8.738;2024-02-26T10:36:26;0.47;;;0.47;;
28545;SDS011;15749;49.606;8.738;2024-02-26T10:39:14;0.30;;;0.30;;
28545;SDS011;15749;49.606;8.738;2024-02-26T10:41:43;0.37;;;0.30;;
28545;SDS011;15749;49.606;8.738;2024-02-26T10:44:13;0.40;;;0.40;;
28545;SDS011;15749;49.606;8.738;2024-02-26T10:46:46;0.57;;;0.50;;
28545;SDS011;15749;49.606;8.738;2024-02-26T10:49:17;0.60;;;0.60;;
28545;SDS011;15749;49.606;8.738;2024-02-26T10:51:50;0.40;;;0.40;;
28545;SDS011;15749;49.606;8.738;2024-02-26T10:54:23;0.40;;;0.40;;
28545;SDS011;15749;49.606;8.738;2024-02-26T10:56:56;0.60;;;0.50;;
28545;SDS011;15749;49.606;8.738;2024-02-26T10:59:27;0.40;;;0.40;;
28545;SDS011;15749;49.606;8.738;2024-02-26T11:01:56;1.10;;;0.50;;
28545;SDS011;15749;49.606;8.738;2024-02-26T11:04:28;0.43;;;0.43;;
28545;SDS011;15749;49.606;8.738;2024-02-26T11:06:58;0.57;;;0.40;;
28545;SDS011;15749;49.606;8.738;2024-02-26T11:09:28;0.60;;;0.40;;
28545;SDS011;15749;49.606;8.738;2024-02-26T11:11:57;0.30;;;0.30;;
28545;SDS011;15749;49.606;8.738;2024-02-26T11:14:28;0.33;;;0.30;;
28545;SDS011;15749;49.606;8.738;2024-02-26T11:16:58;0.73;;;0.40;;
28545;SDS011;15749;49.606;8.738;2024-02-26T11:19:29;0.30;;;0.30;;
28545;SDS011;15749;49.606;8.738;2024-02-26T11:22:04;1.10;;;1.00;;
28545;SDS011;15749;49.606;8.738;2024-02-26T11:55:07;0.50;;;0.50;;
28545;SDS011;15749;49.606;8.738;2024-02-26T12:02:05;0.50;;;0.47;;
28545;SDS011;15749;49.606;8.738;2024-02-26T12:04:35;0.40;;;0.40;;
28545;SDS011;15749;49.606;8.738;2024-02-26T12:07:05;0.30;;;0.30;;
28545;SDS011;15749;49.606;8.738;2024-02-26T12:09:35;0.30;;;0.20;;
28545;SDS011;15749;49.606;8.738;2024-02-26T12:12:06;2.40;;;0.20;;
28545;SDS011;15749;49.606;8.738;2024-02-26T12:14:39;2.10;;;0.30;;
28545;SDS011;15749;49.606;8.738;2024-02-26T12:17:19;0.50;;;0.37;;
28545;SDS011;15749;49.606;8.738;2024-02-26T12:19:49;0.30;;;0.30;;
28545;SDS011;15749;49.606;8.738;2024-02-26T12:22:20;0.80;;;0.80;;
28545;SDS011;15749;49.606;8.738;2024-02-26T12:24:57;0.90;;;0.90;;
28545;SDS011;15749;49.606;8.738;2024-02-26T12:27:28;1.83;;;1.73;;
28545;SDS011;15749;49.606;8.738;2024-02-26T12:29:57;4.00;;;3.60;;
28545;SDS011;15749;49.606;8.738;2024-02-26T12:32:28;3.30;;;3.03;;
28545;SDS011;15749;49.606;8.738;2024-02-26T12:34:58;2.40;;;2.20;;
28545;SDS011;15749;49.606;8.738;2024-02-26T12:37:27;1.60;;;1.50;;
28545;SDS011;15749;49.606;8.738;2024-02-26T12:39:57;0.80;;;0.80;;
28545;SDS011;15749;49.606;8.738;2024-02-26T12:42:26;2.30;;;2.00;;
28545;SDS011;15749;49.606;8.738;2024-02-26T12:44:55;6.77;;;6.10;;
28545;SDS011;15749;49.606;8.738;2024-02-26T12:47:25;4.10;;;3.70;;
28545;SDS011;15749;49.606;8.738;2024-02-26T12:49:56;2.33;;;2.13;;
28545;SDS011;15749;49.606;8.738;2024-02-26T12:52:26;1.80;;;1.70;;
28545;SDS011;15749;49.606;8.738;2024-02-26T12:54:55;1.00;;;0.90;;
28545;SDS011;15749;49.606;8.738;2024-02-26T12:57:25;0.67;;;0.67;;
28545;SDS011;15749;49.606;8.738;2024-02-26T13:00:00;0.53;;;0.50;;
28545;SDS011;15749;49.606;8.738;2024-02-26T13:02:32;0.40;;;0.40;;
28545;SDS011;15749;49.606;8.738;2024-02-26T13:05:03;0.67;;;0.40;;
28545;SDS011;15749;49.606;8.738;2024-02-26T13:07:34;0.30;;;0.30;;
28545;SDS011;15749;49.606;8.738;2024-02-26T13:10:10;0.80;;;0.30;;
28545;SDS011;15749;49.606;8.738;2024-02-26T13:12:42;0.43;;;0.30;;
28545;SDS011;15749;49.606;8.738;2024-02-26T13:15:14;0.70;;;0.50;;
28545;SDS011;15749;49.606;8.738;2024-02-26T13:17:45;0.50;;;0.50;;
28545;SDS011;15749;49.606;8.738;2024-02-26T13:20:24;0.57;;;0.50;;
28545;SDS011;15749;49.606;8.738;2024-02-26T13:22:59;0.50;;;0.50;;
28545;SDS011;15749;49.606;8.738;2024-02-26T13:25:30;0.57;;;0.50;;
28545;SDS011;15749;49.606;8.738;2024-02-26T13:28:08;0.40;;;0.30;;
28545;SDS011;15749;49.606;8.738;2024-02-26T13:30:41;0.30;;;0.30;;
28545;SDS011;15749;49.606;8.738;2024-02-26T13:33:12;0.50;;;0.40;;
28545;SDS011;15749;49.606;8.738;2024-02-26T13:35:41;0.47;;;0.40;;
28545;SDS011;15749;49.606;8.738;2024-02-26T13:38:10;0.60;;;0.60;;
28545;SDS011;15749;49.606;8.738;2024-02-26T13:40:40;0.60;;;0.30;;
28545;SDS011;15749;49.606;8.738;2024-02-26T13:43:09;0.50;;;0.43;;
28545;SDS011;15749;49.606;8.738;2024-02-26T13:45:38;1.23;;;0.50;;
28545;SDS011;15749;49.606;8.738;2024-02-26T13:48:08;0.50;;;0.43;;
28545;SDS011;15749;49.606;8.738;2024-02-26T13:50:40;0.40;;;0.40;;
28545;SDS011;15749;49.606;8.738;2024-02-26T13:53:13;0.60;;;0.40;;
28545;SDS011;15749;49.606;8.738;2024-02-26T13:55:42;0.90;;;0.60;;
28545;SDS011;15749;49.606;8.738;2024-02-26T13:58:12;0.50;;;0.50;;
28545;SDS011;15749;49.606;8.738;2024-02-26T14:00:42;0.40;;;0.40;;
28545;SDS011;15749;49.606;8.738;2024-02-26T14:03:11;0.70;;;0.43;;
28545;SDS011;15749;49.606;8.738;2024-02-26T14:05:42;0.67;;;0.50;;
28545;SDS011;15749;49.606;8.738;2024-02-26T14:08:14;0.40;;;0.40;;
28545;SDS011;15749;49.606;8.738;2024-02-26T14:10:43;0.90;;;0.63;;
28545;SDS011;15749;49.606;8.738;2024-02-26T14:13:13;0.50;;;0.47;;
28545;SDS011;15749;49.606;8.738;2024-02-26T14:15:42;0.67;;;0.57;;
28545;SDS011;15749;49.606;8.738;2024-02-26T14:18:13;0.57;;;0.57;;
28545;SDS011;15749;49.606;8.738;2024-02-26T14:21:03;0.80;;;0.40;;
28545;SDS011;15749;49.606;8.738;2024-02-26T14:23:45;1.20;;;0.40;;
28545;SDS011;15749;49.606;8.738;2024-02-26T14:26:14;0.50;;;0.43;;
28545;SDS011;15749;49.606;8.738;2024-02-26T14:28:43;0.50;;;0.50;;
28545;SDS011;15749;49.606;8.738;2024-02-26T14:31:16;2.40;;;0.60;;
28545;SDS011;15749;49.606;8.738;2024-02-26T14:33:46;1.03;;;0.60;;
28545;SDS011;15749;49.606;8.738;2024-02-26T14:36:20;4.10;;;0.63;;
28545;SDS011;15749;49.606;8.738;2024-02-26T14:38:50;1.20;;;1.00;;
28545;SDS011;15749;49.606;8.738;2024-02-26T14:41:20;1.00;;;0.90;;
28545;SDS011;15749;49.606;8.738;2024-02-26T14:43:49;1.20;;;1.10;;
28545;SDS011;15749;49.606;8.738;2024-02-26T14:46:18;1.30;;;1.20;;
28545;SDS011;15749;49.606;8.738;2024-02-26T14:48:47;1.40;;;1.30;;
28545;SDS011;15749;49.606;8.738;2024-02-26T14:51:16;1.10;;;1.00;;
28545;SDS011;15749;49.606;8.738;2024-02-26T14:53:47;0.90;;;0.80;;
28545;SDS011;15749;49.606;8.738;2024-02-26T14:56:16;0.70;;;0.70;;
28545;SDS011;15749;49.606;8.738;2024-02-26T14:58:46;0.60;;;0.50;;
28545;SDS011;15749;49.606;8.738;2024-02-26T15:01:15;0.90;;;0.50;;
28545;SDS011;15749;49.606;8.738;2024-02-26T15:03:44;0.83;;;0.70;;
28545;SDS011;15749;49.606;8.738;2024-02-26T15:06:13;0.57;;;0.57;;
28545;SDS011;15749;49.606;8.738;2024-02-26T15:08:42;0.67;;;0.60;;
28545;SDS011;15749;49.606;8.738;2024-02-26T15:11:13;1.20;;;0.80;;
28545;SDS011;15749;49.606;8.738;2024-02-26T15:13:42;1.17;;;0.70;;
28545;SDS011;15749;49.606;8.738;2024-02-26T15:16:16;0.70;;;0.70;;
28545;SDS011;15749;49.606;8.738;2024-02-26T15:18:46;1.73;;;0.70;;
28545;SDS011;15749;49.606;8.738;2024-02-26T15:21:15;1.23;;;0.90;;
28545;SDS011;15749;49.606;8.738;2024-02-26T15:23:45;0.70;;;0.70;;
28545;SDS011;15749;49.606;8.738;2024-02-26T15:26:32;0.93;;;0.80;;
28545;SDS011;15749;49.606;8.738;2024-02-26T15:29:01;0.60;;;0.60;;
28545;SDS011;15749;49.606;8.738;2024-02-26T15:31:30;0.80;;;0.80;;
28545;SDS011;15749;49.606;8.738;2024-02-26T15:33:59;0.80;;;0.80;;
28545;SDS011;15749;49.606;8.738;2024-02-26T15:36:29;0.70;;;0.70;;
28545;SDS011;15749;49.606;8.738;2024-02-26T15:38:58;0.70;;;0.70;;
28545;SDS011;15749;49.606;8.738;2024-02-26T15:41:27;0.67;;;0.67;;
28545;SDS011;15749;49.606;8.738;2024-02-26T15:43:57;1.10;;;1.00;;
28545;SDS011;15749;49.606;8.738;2024-02-26T15:46:27;0.80;;;0.80;;
28545;SDS011;15749;49.606;8.738;2024-02-26T15:48:56;2.17;;;0.77;;
28545;SDS011;15749;49.606;8.738;2024-02-26T15:51:26;0.90;;;0.80;;
28545;SDS011;15749;49.606;8.738;2024-02-26T15:53:55;1.10;;;1.00;;
28545;SDS011;15749;49.606;8.738;2024-02-26T15:56:25;1.10;;;1.00;;
28545;SDS011;15749;49.606;8.738;2024-02-26T15:58:54;1.10;;;1.00;;
28545;SDS011;15749;49.606;8.738;2024-02-26T16:01:27;0.90;;;0.80;;
28545;SDS011;15749;49.606;8.738;2024-02-26T16:04:03;1.50;;;1.20;;
28545;SDS011;15749;49.606;8.738;2024-02-26T16:06:33;1.63;;;1.50;;
28545;SDS011;15749;49.606;8.738;2024-02-26T16:09:07;2.30;;;1.80;;
28545;SDS011;15749;49.606;8.738;2024-02-26T16:11:36;2.47;;;1.57;;
28545;SDS011;15749;49.606;8.738;2024-02-26T16:14:07;2.13;;;1.50;;
28545;SDS011;15749;49.606;8.738;2024-02-26T16:16:58;1.50;;;1.20;;
28545;SDS011;15749;49.606;8.738;2024-02-26T16:19:31;1.63;;;1.50;;
28545;SDS011;15749;49.606;8.738;2024-02-26T16:22:01;2.80;;;1.67;;
28545;SDS011;15749;49.606;8.738;2024-02-26T16:24:31;1.70;;;1.60;;
28545;SDS011;15749;49.606;8.738;2024-02-26T16:27:00;1.67;;;1.40;;
28545;SDS011;15749;49.606;8.738;2024-02-26T16:29:29;1.53;;;1.40;;
28545;SDS011;15749;49.606;8.738;2024-02-26T16:32:00;1.50;;;1.40;;
28545;SDS011;15749;49.606;8.738;2024-02-26T16:34:29;1.73;;;1.40;;
28545;SDS011;15749;49.606;8.738;2024-02-26T16:39:36;1.80;;;1.50;;
28545;SDS011;15749;49.606;8.738;2024-02-26T16:42:06;1.60;;;1.50;;
28545;SDS011;15749;49.606;8.738;2024-02-26T16:44:35;1.43;;;1.33;;
28545;SDS011;15749;49.606;8.738;2024-02-26T16:47:07;2.00;;;1.80;;
28545;SDS011;15749;49.606;8.738;2024-02-26T16:49:36;1.53;;;1.40;;
28545;SDS011;15749;49.606;8.738;2024-02-26T17:39:52;1.90;;;1.70;;
28545;SDS011;15749;49.606;8.738;2024-02-26T17:42:21;2.80;;;2.30;;
28545;SDS011;15749;49.606;8.738;2024-02-26T17:44:50;2.60;;;2.40;;
28545;SDS011;15749;49.606;8.738;2024-02-26T17:47:19;2.67;;;2.30;;
28545;SDS011;15749;49.606;8.738;2024-02-26T17:49:47;2.30;;;2.10;;
28545;SDS011;15749;49.606;8.738;2024-02-26T17:52:17;2.33;;;2.13;;
28545;SDS011;15749;49.606;8.738;2024-02-26T17:54:46;2.20;;;2.00;;
28545;SDS011;15749;49.606;8.738;2024-02-26T17:57:16;2.17;;;1.97;;
28545;SDS011;15749;49.606;8.738;2024-02-26T17:59:47;2.63;;;2.30;;
28545;SDS011;15749;49.606;8.738;2024-02-26T18:02:17;2.10;;;1.90;;
28545;SDS011;15749;49.606;8.738;2024-02-26T18:04:46;2.37;;;2.10;;
28545;SDS011;15749;49.606;8.738;2024-02-26T18:07:15;2.10;;;1.90;;
28545;SDS011;15749;49.606;8.738;2024-02-26T18:09:44;2.90;;;2.60;;
28545;SDS011;15749;49.606;8.738;2024-02-26T18:12:13;2.73;;;2.37;;
28545;SDS011;15749;49.606;8.738;2024-02-26T18:14:44;2.57;;;2.37;;
28545;SDS011;15749;49.606;8.738;2024-02-26T18:17:13;2.03;;;1.87;;
28545;SDS011;15749;49.606;8.738;2024-02-26T18:19:42;2.00;;;1.80;;
28545;SDS011;15749;49.606;8.738;2024-02-26T18:22:11;2.00;;;1.80;;
28545;SDS011;15749;49.606;8.738;2024-02-26T18:24:41;2.90;;;2.00;;
28545;SDS011;15749;49.606;8.738;2024-02-26T18:27:10;1.97;;;1.83;;
28545;SDS011;15749;49.606;8.738;2024-02-26T18:29:40;3.10;;;2.00;;
28545;SDS011;15749;49.606;8.738;2024-02-26T18:32:13;1.70;;;1.60;;
28545;SDS011;15749;49.606;8.738;2024-02-26T18:34:44;1.47;;;1.37;;
28545;SDS011;15749;49.606;8.738;2024-02-26T18:37:18;1.70;;;1.60;;
28545;SDS011;15749;49.606;8.738;2024-02-26T18:39:50;2.53;;;1.60;;
28545;SDS011;15749;49.606;8.738;2024-02-26T18:42:19;2.50;;;1.37;;
28545;SDS011;15749;49.606;8.738;2024-02-26T18:44:53;2.03;;;1.70;;
28545;SDS011;15749;49.606;8.738;2024-02-26T18:47:25;2.63;;;1.90;;
28545;SDS011;15749;49.606;8.738;2024-02-26T18:49:58;2.03;;;1.70;;
28545;SDS011;15749;49.606;8.738;2024-02-26T18:52:28;1.80;;;1.70;;
28545;SDS011;15749;49.606;8.738;2024-02-26T18:55:00;3.07;;;2.00;;
28545;SDS011;15749;49.606;8.738;2024-02-26T18:57:30;2.10;;;1.90;;
28545;SDS011;15749;49.606;8.738;2024-02-26T18:59:59;2.63;;;2.07;;
28545;SDS011;15749;49.606;8.738;2024-02-26T19:05:23;2.03;;;1.80;;
28545;SDS011;15749;49.606;8.738;2024-02-26T19:07:53;2.03;;;1.70;;
28545;SDS011;15749;49.606;8.738;2024-02-26T19:10:25;2.03;;;1.83;;
28545;SDS011;15749;49.606;8.738;2024-02-26T19:12:55;2.20;;;2.00;;
28545;SDS011;15749;49.606;8.738;2024-02-26T19:15:24;2.10;;;1.90;;
28545;SDS011;15749;49.606;8.738;2024-02-26T19:17:55;1.93;;;1.80;;
28545;SDS011;15749;49.606;8.738;2024-02-26T19:20:26;2.10;;;1.90;;
28545;SDS011;15749;49.606;8.738;2024-02-26T19:22:56;2.17;;;1.97;;
28545;SDS011;15749;49.606;8.738;2024-02-26T19:25:25;1.53;;;1.43;;
28545;SDS011;15749;49.606;8.738;2024-02-26T19:27:54;2.40;;;2.20;;
28545;SDS011;15749;49.606;8.738;2024-02-26T19:30:23;2.90;;;2.10;;
28545;SDS011;15749;49.606;8.738;2024-02-26T19:32:52;2.33;;;2.13;;
28545;SDS011;15749;49.606;8.738;2024-02-26T19:35:21;1.93;;;1.83;;
28545;SDS011;15749;49.606;8.738;2024-02-26T19:37:52;1.70;;;1.60;;
28545;SDS011;15749;49.606;8.738;2024-02-26T19:40:21;1.67;;;1.57;;
28545;SDS011;15749;49.606;8.738;2024-02-26T19:42:50;1.90;;;1.70;;
28545;SDS011;15749;49.606;8.738;2024-02-26T19:45:19;1.73;;;1.63;;
28545;SDS011;15749;49.606;8.738;2024-02-26T19:47:49;1.97;;;1.70;;
28545;SDS011;15749;49.606;8.738;2024-02-26T19:50:18;2.20;;;2.00;;
28545;SDS011;15749;49.606;8.738;2024-02-26T19:52:49;2.97;;;2.10;;
28545;SDS011;15749;49.606;8.738;2024-02-26T19:55:20;2.50;;;2.23;;
28545;SDS011;15749;49.606;8.738;2024-02-26T19:57:50;1.83;;;1.70;;
28545;SDS011;15749;49.606;8.738;2024-02-26T20:00:24;2.23;;;1.97;;
28545;SDS011;15749;49.606;8.738;2024-02-26T20:02:54;2.37;;;2.17;;
28545;SDS011;15749;49.606;8.738;2024-02-26T20:05:23;2.23;;;1.93;;
28545;SDS011;15749;49.606;8.738;2024-02-26T20:07:54;2.00;;;1.80;;
28545;SDS011;15749;49.606;8.738;2024-02-26T20:10:24;2.17;;;1.90;;
